Time;durP1;ratioP1;P1;durP2;ratioP2;P2;SDS_P1;SDS_P2;PMS_P1;PMS_P2;Temp;Humidity;BMP_temperature;BMP_pressure;BME280_temperature;BME280_humidity;BME280_pressure;Samples;Min_cycle;Max_cycle;Signal;HPM_P1;HPM_P2
2022/07/07 00:00:39;;;;;;;;;;;;;;;29.37;46.96;98662.59;2090938;28;19928;-48
2022/07/07 00:01:40;;;;;;;;;;;;;;;29.38;46.97;98658.75;2089477;28;19935;-48
2022/07/07 00:02:42;;;;;;;;;;;;;;;29.35;47.14;98660.13;2089193;28;19931;-49
2022/07/07 00:03:42;;;;;;;;;;;;;;;29.35;47.12;98654.66;2090506;28;19925;-47
2022/07/07 00:04:44;;;;;;;;;;;;;;;29.37;46.93;98652.47;2090651;28;19928;-46
2022/07/07 00:05:44;;;;;;;;;;;;;;;29.38;46.80;98659.56;2089910;28;20310;-47
2022/07/07 00:06:46;;;;;;;;;;;;;;;29.39;46.78;98660.38;2090801;28;20019;-47
2022/07/07 00:07:46;;;;;;;;;;;;;;;29.38;47.02;98656.03;2085702;28;19933;-50
2022/07/07 00:08:48;;;;;;;;;;;;;;;29.37;47.06;98657.94;2090429;28;19967;-48
2022/07/07 00:09:48;;;;;;;;;;;;;;;29.38;47.15;98656.03;2090623;28;20471;-48
2022/07/07 00:10:50;;;;;;;;;;;;;;;29.37;47.21;98657.13;2090408;28;19925;-46
2022/07/07 00:11:51;;;;;;;;;;;;;;;29.36;47.28;98664.50;2088737;28;19936;-49
2022/07/07 00:12:53;;;;;;;;;;;;;;;29.39;47.32;98663.13;2090033;28;20042;-47
2022/07/07 00:13:54;;;;;;;;;;;;;;;29.39;47.24;98663.97;2090719;28;20693;-47
2022/07/07 00:14:56;;;;;;;;;;;;;;;29.38;47.29;98662.31;2090885;28;20023;-46
2022/07/07 00:15:56;;;;;;;;;;;;;;;29.37;47.21;98655.22;2090016;28;19960;-47
2022/07/07 00:16:58;;;;;;;;;;;;;;;29.38;47.36;98658.75;2090270;28;19929;-46
2022/07/07 00:18:00;;;;;;;;;;;;;;;29.37;47.34;98657.94;2089188;28;19939;-46
2022/07/07 00:19:01;;;;;;;;;;;;;;;29.37;47.44;98659.84;2089732;28;19931;-45
2022/07/07 00:20:03;;;;;;;;;;;;;;;29.36;47.53;98650.00;2089077;28;19976;-46
2022/07/07 00:21:04;;;;;;;;;;;;;;;29.38;47.36;98653.28;2089719;28;19925;-46
2022/07/07 00:22:05;;;;;;;;;;;;;;;29.36;47.57;98650.00;2089570;28;19963;-45
2022/07/07 00:23:06;;;;;;;;;;;;;;;29.35;47.31;98651.09;2088881;28;19928;-47
2022/07/07 00:24:07;;;;;;;;;;;;;;;29.33;47.46;98647.81;2089144;28;20874;-49
2022/07/07 00:25:08;;;;;;;;;;;;;;;29.37;47.41;98651.66;2087349;28;20287;-47
2022/07/07 00:26:10;;;;;;;;;;;;;;;29.37;47.25;98652.47;2089510;28;19982;-47
2022/07/07 00:27:10;;;;;;;;;;;;;;;29.36;47.10;98639.91;2090023;28;19928;-46
2022/07/07 00:28:13;;;;;;;;;;;;;;;29.35;47.06;98646.47;2089353;28;19946;-46
2022/07/07 00:29:14;;;;;;;;;;;;;;;29.35;47.16;98648.38;2090484;28;20583;-45
2022/07/07 00:30:15;;;;;;;;;;;;;;;29.36;46.96;98644.53;2090726;28;19967;-47
2022/07/07 00:31:16;;;;;;;;;;;;;;;29.38;46.88;98645.09;2089473;28;19928;-47
2022/07/07 00:32:18;;;;;;;;;;;;;;;29.38;46.96;98648.63;2090294;28;20007;-46
2022/07/07 00:33:18;;;;;;;;;;;;;;;29.37;46.98;98643.47;2090373;28;20171;-47
2022/07/07 00:34:20;;;;;;;;;;;;;;;29.36;47.06;98647.28;2089258;28;19990;-46
2022/07/07 00:35:21;;;;;;;;;;;;;;;29.36;46.89;98647.28;2090598;28;20656;-46
2022/07/07 00:36:22;;;;;;;;;;;;;;;29.37;46.81;98638.00;2090147;28;19936;-45
2022/07/07 00:37:23;;;;;;;;;;;;;;;29.35;46.77;98648.38;2089039;28;19944;-45
2022/07/07 00:38:25;;;;;;;;;;;;;;;29.35;46.73;98645.66;2088876;28;19925;-46
2022/07/07 00:39:25;;;;;;;;;;;;;;;29.38;46.62;98645.09;2087174;28;19935;-48
2022/07/07 00:40:27;;;;;;;;;;;;;;;29.36;46.65;98639.06;2091052;28;20315;-45
2022/07/07 00:41:27;;;;;;;;;;;;;;;29.36;46.91;98647.28;2089927;28;19936;-47
2022/07/07 00:42:29;;;;;;;;;;;;;;;29.36;46.84;98642.66;2090770;28;19931;-47
2022/07/07 00:43:36;;;;;;;;;;;;;;;29.35;46.89;98649.19;2090489;28;20394;-48
2022/07/07 00:44:38;;;;;;;;;;;;;;;29.36;46.94;98650.00;2090581;28;20009;-46
2022/07/07 00:45:38;;;;;;;;;;;;;;;29.36;46.99;98650.00;2090654;28;19936;-48
2022/07/07 00:46:44;;;;;;;;;;;;;;;29.35;47.04;98649.19;2089050;28;20500;-46
2022/07/07 00:47:45;;;;;;;;;;;;;;;29.34;47.14;98646.75;2089198;28;19929;-46
2022/07/07 00:48:47;;;;;;;;;;;;;;;29.35;47.23;98637.44;2089755;28;19978;-45
2022/07/07 00:49:47;;;;;;;;;;;;;;;29.34;46.96;98649.47;2089412;28;20520;-47
2022/07/07 00:50:49;;;;;;;;;;;;;;;29.33;47.29;98645.09;2090740;28;19946;-46
2022/07/07 00:51:50;;;;;;;;;;;;;;;29.32;47.18;98644.28;2090358;28;22470;-45
2022/07/07 00:52:51;;;;;;;;;;;;;;;29.33;47.33;98648.63;2089905;28;19932;-46
2022/07/07 00:53:52;;;;;;;;;;;;;;;29.33;47.54;98645.91;2089149;28;19928;-46
2022/07/07 00:54:55;;;;;;;;;;;;;;;29.34;47.36;98644.03;2088287;28;21091;-48
2022/07/07 00:55:56;;;;;;;;;;;;;;;29.33;47.43;98639.63;2089666;28;20039;-46
2022/07/07 00:56:58;;;;;;;;;;;;;;;29.34;47.59;98647.56;2089216;28;19936;-47
2022/07/07 00:57:58;;;;;;;;;;;;;;;29.33;47.41;98642.38;2089309;28;21513;-46
2022/07/07 00:59:06;;;;;;;;;;;;;;;29.35;47.43;98638.25;2090471;28;19967;-46
2022/07/07 01:00:08;;;;;;;;;;;;;;;29.36;47.29;98634.47;2090683;28;19932;-46
2022/07/07 01:01:09;;;;;;;;;;;;;;;29.33;47.17;98632.25;2091449;28;19982;-49
2022/07/07 01:02:10;;;;;;;;;;;;;;;29.33;47.24;98634.97;2090777;28;20489;-46
2022/07/07 01:03:12;;;;;;;;;;;;;;;29.32;47.22;98633.34;2092132;28;20030;-47
2022/07/07 01:04:13;;;;;;;;;;;;;;;29.34;47.21;98633.91;2090652;28;19925;-47
2022/07/07 01:05:16;;;;;;;;;;;;;;;29.32;47.10;98629.81;2092289;28;19924;-45
2022/07/07 01:06:17;;;;;;;;;;;;;;;29.32;47.19;98629.81;2091694;28;19940;-46
2022/07/07 01:07:19;;;;;;;;;;;;;;;29.30;47.50;98626.53;2088135;28;20629;-48
2022/07/07 01:08:19;;;;;;;;;;;;;;;29.31;47.37;98630.88;2091396;28;19924;-46
2022/07/07 01:09:22;;;;;;;;;;;;;;;29.32;47.39;98624.34;2091575;28;19928;-47
2022/07/07 01:10:23;;;;;;;;;;;;;;;29.34;47.46;98627.63;2090497;28;19929;-46
2022/07/07 01:11:24;;;;;;;;;;;;;;;29.32;47.56;98627.88;2091041;28;20405;-49
2022/07/07 01:12:25;;;;;;;;;;;;;;;29.33;47.45;98628.69;2090212;28;19928;-48
2022/07/07 01:13:27;;;;;;;;;;;;;;;29.31;47.56;98626.25;2091074;28;19928;-51
2022/07/07 01:14:29;;;;;;;;;;;;;;;29.32;47.63;98624.34;2092024;28;19928;-50
2022/07/07 01:15:31;;;;;;;;;;;;;;;29.34;47.60;98625.72;2092378;28;20106;-52
2022/07/07 01:16:32;;;;;;;;;;;;;;;29.34;47.52;98617.50;2092808;28;19929;-49
2022/07/07 01:17:33;;;;;;;;;;;;;;;29.35;47.67;98632.81;2090637;28;20617;-49
2022/07/07 01:18:34;;;;;;;;;;;;;;;29.32;47.45;98619.69;2090543;28;20401;-50
2022/07/07 01:19:35;;;;;;;;;;;;;;;29.33;47.62;98620.50;2092559;28;19964;-49
2022/07/07 01:20:37;;;;;;;;;;;;;;;29.34;47.71;98624.91;2090751;28;20279;-50
2022/07/07 01:21:43;;;;;;;;;;;;;;;29.32;47.51;98627.06;2090817;28;20569;-50
2022/07/07 01:22:47;;;;;;;;;;;;;;;29.31;47.78;98619.94;2092038;28;19928;-49
2022/07/07 01:23:49;;;;;;;;;;;;;;;29.30;47.68;98623.78;2091944;28;20023;-48
2022/07/07 01:24:49;;;;;;;;;;;;;;;29.31;47.70;98625.41;2091797;28;20601;-48
2022/07/07 01:25:51;;;;;;;;;;;;;;;29.31;47.84;98625.41;2092922;28;19989;-50
2022/07/07 01:27:03;;;;;;;;;;;;;;;29.32;47.77;98621.63;2091490;28;19928;-48
2022/07/07 01:28:05;;;;;;;;;;;;;;;29.31;47.76;98617.22;2091189;28;20086;-50
2022/07/07 01:29:05;;;;;;;;;;;;;;;29.30;47.68;98612.88;2090985;28;19928;-47
2022/07/07 01:30:07;;;;;;;;;;;;;;;29.30;47.90;98613.69;2091109;28;19932;-51
2022/07/07 01:31:08;;;;;;;;;;;;;;;29.31;47.91;98611.75;2088522;28;19955;-48
2022/07/07 01:32:10;;;;;;;;;;;;;;;29.32;47.74;98616.16;2092502;28;19925;-51
2022/07/07 01:33:11;;;;;;;;;;;;;;;29.31;47.71;98609.88;2089640;28;19935;-47
2022/07/07 01:34:12;;;;;;;;;;;;;;;29.31;47.67;98619.94;2091833;28;19925;-47
2022/07/07 01:35:13;;;;;;;;;;;;;;;29.31;47.70;98618.06;2091954;28;19928;-49
2022/07/07 01:36:15;;;;;;;;;;;;;;;29.31;47.59;98614.50;2091035;28;21662;-49
2022/07/07 01:37:16;;;;;;;;;;;;;;;29.31;47.71;98614.50;2088337;28;20543;-47
2022/07/07 01:38:19;;;;;;;;;;;;;;;29.30;47.83;98616.41;2089853;28;19933;-48
2022/07/07 01:39:19;;;;;;;;;;;;;;;29.30;47.79;98623.78;2090206;28;20601;-47
2022/07/07 01:40:21;;;;;;;;;;;;;;;29.31;47.70;98625.41;2091942;28;20015;-49
2022/07/07 01:41:22;;;;;;;;;;;;;;;29.31;47.66;98620.78;2090512;28;19929;-47
2022/07/07 01:42:23;;;;;;;;;;;;;;;29.33;47.54;98623.25;2091394;28;20704;-50
2022/07/07 01:43:24;;;;;;;;;;;;;;;29.30;47.57;98619.13;2090634;28;20744;-49
2022/07/07 01:44:25;;;;;;;;;;;;;;;29.29;47.72;98616.69;2091902;28;19935;-50
2022/07/07 01:45:26;;;;;;;;;;;;;;;29.31;47.67;98619.94;2091655;28;19932;-47
2022/07/07 01:46:27;;;;;;;;;;;;;;;29.30;47.70;98613.69;2090180;28;20629;-47
2022/07/07 01:47:28;;;;;;;;;;;;;;;29.31;47.75;98619.94;2091937;28;19928;-48
2022/07/07 01:48:30;;;;;;;;;;;;;;;29.31;47.76;98625.41;2091363;28;20063;-49
2022/07/07 01:49:31;;;;;;;;;;;;;;;29.29;47.86;98622.16;2090718;28;19959;-50
2022/07/07 01:50:32;;;;;;;;;;;;;;;29.29;47.88;98620.25;2091799;28;19924;-47
2022/07/07 01:51:33;;;;;;;;;;;;;;;29.30;47.88;98621.06;2089453;28;19935;-49
2022/07/07 01:52:35;;;;;;;;;;;;;;;29.29;47.85;98619.44;2090591;28;19946;-49
2022/07/07 01:53:37;;;;;;;;;;;;;;;29.28;47.97;98615.88;2091372;28;20558;-48
2022/07/07 01:54:39;;;;;;;;;;;;;;;29.28;47.90;98617.78;2091507;28;19932;-48
2022/07/07 01:55:40;;;;;;;;;;;;;;;29.29;47.91;98622.16;2089485;28;19932;-48
2022/07/07 01:56:41;;;;;;;;;;;;;;;29.25;47.75;98631.97;2092076;28;19931;-50
2022/07/07 01:57:42;;;;;;;;;;;;;;;29.27;47.70;98618.88;2090372;28;20298;-48
2022/07/07 01:58:43;;;;;;;;;;;;;;;29.29;47.57;98622.16;2091409;28;19999;-49
2022/07/07 01:59:45;;;;;;;;;;;;;;;29.28;47.63;98618.63;2092040;28;20351;-48
2022/07/07 02:00:45;;;;;;;;;;;;;;;29.28;47.57;98617.78;2089636;28;20462;-52
2022/07/07 02:01:47;;;;;;;;;;;;;;;29.28;47.59;98617.78;2091134;28;20019;-50
2022/07/07 02:02:47;;;;;;;;;;;;;;;29.27;47.75;98618.88;2090286;28;19925;-49
2022/07/07 02:03:49;;;;;;;;;;;;;;;29.26;47.85;98620.78;2091063;28;20516;-48
2022/07/07 02:04:49;;;;;;;;;;;;;;;29.26;47.77;98617.25;2092349;28;19924;-48
2022/07/07 02:05:51;;;;;;;;;;;;;;;29.27;47.88;98618.88;2091802;28;20647;-50
2022/07/07 02:06:52;;;;;;;;;;;;;;;29.28;47.90;98615.03;2089739;28;20590;-48
2022/07/07 02:07:53;;;;;;;;;;;;;;;29.27;47.98;98622.41;2089230;28;19928;-48
2022/07/07 02:08:55;;;;;;;;;;;;;;;29.27;47.87;98616.97;2093089;28;20485;-49
2022/07/07 02:09:57;;;;;;;;;;;;;;;29.27;47.93;98621.63;2094810;28;19931;-49
2022/07/07 02:11:12;;;;;;;;;;;;;;;29.28;47.99;98615.88;2092696;28;19935;-48
2022/07/07 02:12:14;;;;;;;;;;;;;;;29.27;47.95;98619.69;2092182;28;19994;-49
2022/07/07 02:13:14;;;;;;;;;;;;;;;29.29;47.96;98622.16;2089786;28;20355;-47
2022/07/07 02:14:16;;;;;;;;;;;;;;;29.27;48.00;98624.34;2090141;28;19932;-48
2022/07/07 02:15:17;;;;;;;;;;;;;;;29.28;48.10;98624.09;2090964;28;19932;-47
2022/07/07 02:16:20;;;;;;;;;;;;;;;29.27;48.16;98625.16;2091908;28;19929;-49
2022/07/07 02:17:21;;;;;;;;;;;;;;;29.27;48.13;98629.81;2089823;28;19944;-47
2022/07/07 02:18:22;;;;;;;;;;;;;;;29.25;48.06;98632.78;2091939;28;21171;-48
2022/07/07 02:19:23;;;;;;;;;;;;;;;29.24;48.07;98631.16;2088615;28;19931;-51
2022/07/07 02:20:24;;;;;;;;;;;;;;;29.26;48.24;98633.63;2090629;28;19931;-47
2022/07/07 02:21:25;;;;;;;;;;;;;;;29.25;48.09;98630.06;2089474;28;19943;-47
2022/07/07 02:22:27;;;;;;;;;;;;;;;29.25;48.10;98634.72;2089154;28;20566;-47
2022/07/07 02:23:27;;;;;;;;;;;;;;;29.24;48.17;98636.63;2088783;28;19932;-50
2022/07/07 02:24:30;;;;;;;;;;;;;;;29.24;48.11;98631.16;2091226;28;19933;-48
2022/07/07 02:25:31;;;;;;;;;;;;;;;29.28;48.12;98628.69;2090327;28;19932;-48
2022/07/07 02:26:33;;;;;;;;;;;;;;;29.26;47.98;98634.47;2090911;28;20130;-48
2022/07/07 02:27:34;;;;;;;;;;;;;;;29.27;48.00;98638.00;2089756;28;19949;-48
2022/07/07 02:28:36;;;;;;;;;;;;;;;29.25;47.90;98631.97;2089963;28;20413;-51
2022/07/07 02:29:37;;;;;;;;;;;;;;;29.25;48.02;98631.97;2090826;28;19928;-47
2022/07/07 02:30:38;;;;;;;;;;;;;;;29.26;48.09;98639.09;2089481;28;19932;-47
2022/07/07 02:31:39;;;;;;;;;;;;;;;29.25;48.09;98637.44;2090036;28;19938;-48
2022/07/07 02:32:40;;;;;;;;;;;;;;;29.25;47.97;98634.72;2090985;28;19931;-48
2022/07/07 02:33:42;;;;;;;;;;;;;;;29.27;47.94;98647.00;2090415;28;19929;-49
2022/07/07 02:34:43;;;;;;;;;;;;;;;29.27;47.90;98635.25;2090974;28;20155;-49
2022/07/07 02:35:44;;;;;;;;;;;;;;;29.28;47.79;98636.91;2089302;28;19933;-51
2022/07/07 02:36:45;;;;;;;;;;;;;;;29.27;47.70;98636.09;2088836;28;19925;-51
2022/07/07 02:37:46;;;;;;;;;;;;;;;29.27;47.81;98638.00;2089985;28;19930;-48
2022/07/07 02:38:49;;;;;;;;;;;;;;;29.26;47.92;98633.63;2090385;28;19932;-50
2022/07/07 02:39:51;;;;;;;;;;;;;;;29.25;47.67;98634.72;2089958;28;19928;-47
2022/07/07 02:40:53;;;;;;;;;;;;;;;29.26;47.77;98633.63;2090434;28;19932;-48
2022/07/07 02:41:53;;;;;;;;;;;;;;;29.24;47.65;98631.16;2090842;28;19978;-48
2022/07/07 02:42:56;;;;;;;;;;;;;;;29.23;47.93;98635.00;2091108;28;19998;-50
2022/07/07 02:43:56;;;;;;;;;;;;;;;29.24;47.72;98631.16;2090161;28;19928;-48
2022/07/07 02:44:58;;;;;;;;;;;;;;;29.23;47.65;98635.00;2088345;28;19925;-48
2022/07/07 02:45:58;;;;;;;;;;;;;;;29.23;47.49;98626.81;2089230;28;19927;-49
2022/07/07 02:47:00;;;;;;;;;;;;;;;29.24;47.61;98631.16;2089346;28;19955;-48
2022/07/07 02:48:00;;;;;;;;;;;;;;;29.25;47.66;98623.78;2090882;28;19935;-48
2022/07/07 02:49:02;;;;;;;;;;;;;;;29.23;47.71;98626.81;2088935;28;21019;-49
2022/07/07 02:50:03;;;;;;;;;;;;;;;29.23;47.78;98621.34;2090432;28;20014;-48
2022/07/07 02:51:05;;;;;;;;;;;;;;;29.23;47.86;98626.00;2091238;28;19924;-51
2022/07/07 02:52:05;;;;;;;;;;;;;;;29.22;47.97;98627.06;2088962;28;20829;-49
2022/07/07 02:53:08;;;;;;;;;;;;;;;29.24;47.92;98627.63;2089911;28;19939;-48
2022/07/07 02:54:08;;;;;;;;;;;;;;;29.24;47.74;98620.25;2088406;28;19936;-49
2022/07/07 02:55:11;;;;;;;;;;;;;;;29.22;47.89;98613.41;2090135;28;22411;-48
2022/07/07 02:56:12;;;;;;;;;;;;;;;29.23;48.01;98617.81;2089742;28;19947;-50
2022/07/07 02:57:14;;;;;;;;;;;;;;;29.21;47.87;98625.44;2090394;28;20044;-52
2022/07/07 02:58:15;;;;;;;;;;;;;;;29.22;47.87;98608.75;2090161;28;20011;-48
2022/07/07 02:59:17;;;;;;;;;;;;;;;29.21;47.65;98615.34;2090608;28;19932;-48
2022/07/07 03:00:18;;;;;;;;;;;;;;;29.20;47.95;98613.72;2089802;28;19924;-48
2022/07/07 03:01:19;;;;;;;;;;;;;;;29.22;47.67;98618.88;2088781;28;20032;-50
2022/07/07 03:02:20;;;;;;;;;;;;;;;29.21;47.77;98614.53;2089156;28;19924;-47
2022/07/07 03:03:21;;;;;;;;;;;;;;;29.22;47.71;98611.50;2089925;28;19960;-49
2022/07/07 03:04:22;;;;;;;;;;;;;;;29.20;47.63;98616.44;2090679;28;19939;-48
2022/07/07 03:05:24;;;;;;;;;;;;;;;29.20;47.69;98619.16;2090318;28;19947;-49
2022/07/07 03:06:24;;;;;;;;;;;;;;;29.22;47.60;98616.16;2090133;28;19931;-51
2022/07/07 03:07:26;;;;;;;;;;;;;;;29.21;47.71;98619.97;2088192;28;19932;-50
2022/07/07 03:08:27;;;;;;;;;;;;;;;29.22;47.86;98627.06;2090689;28;19932;-48
2022/07/07 03:09:28;;;;;;;;;;;;;;;29.21;47.58;98622.72;2089612;28;19935;-50
2022/07/07 03:10:31;;;;;;;;;;;;;;;29.22;47.58;98624.34;2090168;28;19929;-47
2022/07/07 03:11:31;;;;;;;;;;;;;;;29.23;47.66;98615.88;2090091;28;19940;-47
2022/07/07 03:12:33;;;;;;;;;;;;;;;29.22;47.48;98619.69;2090486;28;20477;-48
2022/07/07 03:13:33;;;;;;;;;;;;;;;29.23;47.57;98631.47;2090715;28;19925;-47
2022/07/07 03:14:35;;;;;;;;;;;;;;;29.21;47.62;98612.59;2089552;28;19983;-48
2022/07/07 03:15:36;;;;;;;;;;;;;;;29.23;47.61;98620.53;2090555;28;19928;-47
2022/07/07 03:16:37;;;;;;;;;;;;;;;29.21;47.39;98618.06;2088949;28;20040;-48
2022/07/07 03:17:40;;;;;;;;;;;;;;;29.22;47.41;98627.06;2090242;28;19928;-49
2022/07/07 03:18:42;;;;;;;;;;;;;;;29.24;47.32;98620.25;2090778;28;20313;-51
2022/07/07 03:19:42;;;;;;;;;;;;;;;29.24;47.22;98617.50;2086798;28;19931;-47
2022/07/07 03:20:44;;;;;;;;;;;;;;;29.22;47.15;98613.41;2090133;28;19932;-50
2022/07/07 03:21:44;;;;;;;;;;;;;;;29.24;46.88;98611.22;2090636;28;19935;-48
2022/07/07 03:22:46;;;;;;;;;;;;;;;29.25;46.84;98616.41;2087274;28;19924;-48
2022/07/07 03:23:46;;;;;;;;;;;;;;;29.24;47.00;98613.97;2090071;28;19935;-46
2022/07/07 03:24:48;;;;;;;;;;;;;;;29.22;46.87;98616.97;2090557;28;19935;-49
2022/07/07 03:25:50;;;;;;;;;;;;;;;29.24;46.83;98619.44;2089898;28;19932;-49
2022/07/07 03:26:51;;;;;;;;;;;;;;;29.24;46.79;98619.44;2091066;28;19933;-51
2022/07/07 03:27:52;;;;;;;;;;;;;;;29.25;46.74;98621.06;2080426;28;19935;-47
2022/07/07 03:28:53;;;;;;;;;;;;;;;29.26;46.55;98617.25;2087812;28;19925;-50
2022/07/07 03:29:54;;;;;;;;;;;;;;;29.25;46.60;98615.59;2090383;28;20398;-49
2022/07/07 03:30:56;;;;;;;;;;;;;;;29.25;46.44;98610.94;2090291;28;19931;-49
2022/07/07 03:31:56;;;;;;;;;;;;;;;29.23;46.82;98617.81;2089680;28;19928;-50
2022/07/07 03:32:58;;;;;;;;;;;;;;;29.23;46.80;98620.53;2089438;28;20515;-48
2022/07/07 03:33:58;;;;;;;;;;;;;;;29.23;46.79;98626.00;2085537;28;19925;-47
2022/07/07 03:35:00;;;;;;;;;;;;;;;29.23;46.71;98620.53;2083577;28;19935;-50
2022/07/07 03:36:02;;;;;;;;;;;;;;;29.23;46.79;98624.06;2090099;28;20004;-48
2022/07/07 03:37:03;;;;;;;;;;;;;;;29.23;46.97;98628.72;2090852;28;19931;-48
2022/07/07 03:38:05;;;;;;;;;;;;;;;29.22;47.02;98635.25;2089340;28;19936;-46
2022/07/07 03:39:06;;;;;;;;;;;;;;;29.22;46.97;98627.06;2090658;28;19961;-48
2022/07/07 03:40:07;;;;;;;;;;;;;;;29.20;47.08;98626.53;2088885;28;19928;-50
2022/07/07 03:41:10;;;;;;;;;;;;;;;29.20;47.16;98630.09;2091344;28;19931;-46
2022/07/07 03:42:11;;;;;;;;;;;;;;;29.20;46.97;98623.78;2090463;28;19936;-50
2022/07/07 03:43:12;;;;;;;;;;;;;;;29.21;47.02;98626.25;2090084;28;19928;-50
2022/07/07 03:44:13;;;;;;;;;;;;;;;29.22;47.04;98632.53;2089625;28;19924;-47
2022/07/07 03:45:15;;;;;;;;;;;;;;;29.20;47.04;98630.09;2089992;28;19967;-47
2022/07/07 03:46:15;;;;;;;;;;;;;;;29.21;47.08;98633.63;2091057;28;19929;-46
2022/07/07 03:47:17;;;;;;;;;;;;;;;29.18;47.16;98630.34;2090253;28;19983;-48
2022/07/07 03:48:17;;;;;;;;;;;;;;;29.20;46.98;98630.09;2089986;28;20560;-47
2022/07/07 03:49:19;;;;;;;;;;;;;;;29.20;46.92;98634.72;2090118;28;19989;-48
2022/07/07 03:50:20;;;;;;;;;;;;;;;29.18;47.16;98638.53;2086754;28;19935;-50
2022/07/07 03:51:21;;;;;;;;;;;;;;;29.20;46.98;98637.44;2090426;28;20028;-50
2022/07/07 03:52:22;;;;;;;;;;;;;;;29.20;46.98;98635.56;2088301;28;19928;-48
2022/07/07 03:53:23;;;;;;;;;;;;;;;29.18;46.93;98635.81;2087236;28;19961;-49
2022/07/07 03:54:24;;;;;;;;;;;;;;;29.17;47.03;98633.38;2088814;28;19932;-49
2022/07/07 03:55:26;;;;;;;;;;;;;;;29.17;47.11;98639.66;2089908;28;19950;-50
2022/07/07 03:56:27;;;;;;;;;;;;;;;29.18;47.03;98635.81;2088898;28;19928;-49
2022/07/07 03:57:29;;;;;;;;;;;;;;;29.20;46.96;98638.28;2089577;28;19939;-50
2022/07/07 03:58:30;;;;;;;;;;;;;;;29.20;47.02;98637.44;2082675;28;19940;-50
2022/07/07 03:59:31;;;;;;;;;;;;;;;29.18;47.10;98637.72;2083600;28;19939;-48
2022/07/07 04:00:32;;;;;;;;;;;;;;;29.17;47.09;98636.09;2088150;28;19929;-49
2022/07/07 04:01:33;;;;;;;;;;;;;;;29.17;47.06;98633.38;2086459;28;19924;-47
2022/07/07 04:02:35;;;;;;;;;;;;;;;29.17;47.24;98636.91;2089854;28;19925;-47
2022/07/07 04:03:37;;;;;;;;;;;;;;;29.16;47.22;98623.53;2090185;28;19931;-48
2022/07/07 04:04:38;;;;;;;;;;;;;;;29.17;47.46;98625.19;2088648;28;20467;-50
2022/07/07 04:05:39;;;;;;;;;;;;;;;29.16;47.43;98631.72;2088399;28;19932;-50
2022/07/07 04:06:40;;;;;;;;;;;;;;;29.15;47.58;98627.34;2089831;28;20012;-50
2022/07/07 04:07:42;;;;;;;;;;;;;;;29.15;47.54;98627.34;2089674;28;20024;-50
2022/07/07 04:08:42;;;;;;;;;;;;;;;29.15;47.63;98633.63;2087393;28;20418;-46
2022/07/07 04:09:44;;;;;;;;;;;;;;;29.15;47.50;98628.16;2089597;28;19924;-48
2022/07/07 04:10:44;;;;;;;;;;;;;;;29.16;47.80;98626.25;2086061;28;19933;-47
2022/07/07 04:11:47;;;;;;;;;;;;;;;29.14;47.88;98625.69;2090367;28;19929;-50
2022/07/07 04:12:49;;;;;;;;;;;;;;;29.15;47.80;98627.34;2090286;28;20590;-48
2022/07/07 04:13:49;;;;;;;;;;;;;;;29.14;47.71;98620.25;2089526;28;19928;-48
2022/07/07 04:14:51;;;;;;;;;;;;;;;29.14;47.87;98626.53;2090492;28;20453;-50
2022/07/07 04:15:52;;;;;;;;;;;;;;;29.13;47.72;98622.16;2089642;28;19928;-48
2022/07/07 04:16:53;;;;;;;;;;;;;;;29.14;48.02;98625.69;2090197;28;19924;-48
2022/07/07 04:17:54;;;;;;;;;;;;;;;29.14;47.82;98618.34;2089346;28;19929;-51
2022/07/07 04:18:55;;;;;;;;;;;;;;;29.14;48.09;98626.53;2087121;28;19931;-49
2022/07/07 04:19:56;;;;;;;;;;;;;;;29.12;47.81;98623.25;2088845;28;20035;-51
2022/07/07 04:20:57;;;;;;;;;;;;;;;29.13;47.89;98624.88;2087314;28;19977;-51
2022/07/07 04:21:58;;;;;;;;;;;;;;;29.14;48.06;98621.09;2089435;28;19924;-48
2022/07/07 04:23:00;;;;;;;;;;;;;;;29.15;47.79;98621.91;2090673;28;19924;-51
2022/07/07 04:24:00;;;;;;;;;;;;;;;29.16;47.80;98623.53;2088179;28;19935;-51
2022/07/07 04:25:02;;;;;;;;;;;;;;;29.13;47.87;98622.16;2090498;28;19931;-48
2022/07/07 04:26:02;;;;;;;;;;;;;;;29.13;47.87;98615.88;2089590;28;20015;-48
2022/07/07 04:27:08;;;;;;;;;;;;;;;29.13;48.06;98619.41;2089509;28;19929;-48
2022/07/07 04:28:09;;;;;;;;;;;;;;;29.13;48.25;98624.06;2089680;28;19928;-48
2022/07/07 04:29:10;;;;;;;;;;;;;;;29.13;47.96;98619.41;2088987;28;20066;-48
2022/07/07 04:30:11;;;;;;;;;;;;;;;29.12;47.89;98617.78;2087334;28;19925;-47
2022/07/07 04:31:13;;;;;;;;;;;;;;;29.14;47.95;98621.09;2089664;28;19929;-48
2022/07/07 04:32:13;;;;;;;;;;;;;;;29.13;48.08;98622.16;2088716;28;19932;-48
2022/07/07 04:33:15;;;;;;;;;;;;;;;29.13;48.30;98619.41;2090862;28;20028;-49
2022/07/07 04:34:15;;;;;;;;;;;;;;;29.12;48.09;98616.97;2090418;28;19928;-49
2022/07/07 04:35:17;;;;;;;;;;;;;;;29.13;48.09;98622.16;2089239;28;19928;-50
2022/07/07 04:36:17;;;;;;;;;;;;;;;29.12;48.10;98614.25;2088105;28;19928;-49
2022/07/07 04:37:19;;;;;;;;;;;;;;;29.12;48.19;98612.34;2089634;28;19941;-49
2022/07/07 04:38:19;;;;;;;;;;;;;;;29.14;48.27;98604.69;2089324;28;19931;-50
2022/07/07 04:39:21;;;;;;;;;;;;;;;29.15;48.10;98613.69;2085542;28;20047;-47
2022/07/07 04:40:22;;;;;;;;;;;;;;;29.13;48.03;98603.03;2090008;28;19981;-48
2022/07/07 04:41:23;;;;;;;;;;;;;;;29.15;48.16;98605.50;2090097;28;20387;-48
2022/07/07 04:42:25;;;;;;;;;;;;;;;29.16;48.12;98607.94;2086630;28;19925;-47
2022/07/07 04:43:27;;;;;;;;;;;;;;;29.14;48.17;98601.13;2091269;28;19937;-49
2022/07/07 04:44:28;;;;;;;;;;;;;;;29.12;48.22;98601.41;2091939;28;20420;-48
2022/07/07 04:45:29;;;;;;;;;;;;;;;29.12;48.13;98612.34;2089289;28;19959;-47
2022/07/07 04:46:30;;;;;;;;;;;;;;;29.12;48.03;98606.88;2091499;28;20402;-47
2022/07/07 04:47:31;;;;;;;;;;;;;;;29.12;48.12;98600.59;2090661;28;19947;-47
2022/07/07 04:48:33;;;;;;;;;;;;;;;29.12;48.24;98612.34;2089642;28;19929;-53
2022/07/07 04:49:33;;;;;;;;;;;;;;;29.11;48.23;98610.72;2093156;28;19928;-47
2022/07/07 04:50:35;;;;;;;;;;;;;;;29.12;48.24;98614.25;2087544;28;21192;-45
2022/07/07 04:51:37;;;;;;;;;;;;;;;29.12;48.25;98611.53;2086295;28;19925;-48
2022/07/07 04:52:38;;;;;;;;;;;;;;;29.13;48.42;98610.41;2086880;28;19933;-47
2022/07/07 04:53:39;;;;;;;;;;;;;;;29.12;48.33;98604.16;2089314;28;19924;-48
2022/07/07 04:54:40;;;;;;;;;;;;;;;29.12;48.27;98606.06;2090590;28;19931;-50
2022/07/07 04:55:41;;;;;;;;;;;;;;;29.10;48.17;98608.25;2091368;28;19935;-47
2022/07/07 04:56:42;;;;;;;;;;;;;;;29.12;48.25;98611.53;2091782;28;19987;-49
2022/07/07 04:57:45;;;;;;;;;;;;;;;29.12;48.35;98609.59;2091482;28;20447;-47
2022/07/07 04:58:46;;;;;;;;;;;;;;;29.12;48.30;98609.59;2090048;28;19974;-50
2022/07/07 04:59:47;;;;;;;;;;;;;;;29.12;48.45;98615.06;2091819;28;19932;-48
2022/07/07 05:00:48;;;;;;;;;;;;;;;29.11;48.23;98607.97;2090025;28;19955;-50
2022/07/07 05:01:49;;;;;;;;;;;;;;;29.11;48.17;98607.97;2089091;28;20027;-47
2022/07/07 05:02:50;;;;;;;;;;;;;;;29.11;48.41;98613.44;2090476;28;19933;-48
2022/07/07 05:03:51;;;;;;;;;;;;;;;29.10;48.52;98609.06;2090969;28;19971;-47
2022/07/07 05:04:52;;;;;;;;;;;;;;;29.12;48.33;98615.06;2090590;28;19935;-47
2022/07/07 05:05:54;;;;;;;;;;;;;;;29.12;48.31;98611.53;2086974;28;20571;-48
2022/07/07 05:06:54;;;;;;;;;;;;;;;29.10;48.48;98614.50;2091864;28;19935;-46
2022/07/07 05:07:56;;;;;;;;;;;;;;;29.10;48.26;98619.16;2091716;28;19928;-46
2022/07/07 05:08:56;;;;;;;;;;;;;;;29.10;48.44;98619.97;2092276;28;19928;-49
2022/07/07 05:09:58;;;;;;;;;;;;;;;29.11;48.01;98621.63;2091150;28;19952;-49
2022/07/07 05:10:59;;;;;;;;;;;;;;;29.11;47.81;98627.09;2091542;28;19928;-48
2022/07/07 05:12:00;;;;;;;;;;;;;;;29.10;47.95;98630.09;2091523;28;19932;-47
2022/07/07 05:13:02;;;;;;;;;;;;;;;29.11;48.09;98629.81;2091965;28;20539;-49
2022/07/07 05:14:04;;;;;;;;;;;;;;;29.14;47.95;98631.16;2091480;28;20558;-47
2022/07/07 05:15:05;;;;;;;;;;;;;;;29.13;47.66;98635.00;2090939;28;20579;-48
2022/07/07 05:16:07;;;;;;;;;;;;;;;29.12;47.56;98626.00;2089562;28;19982;-48
2022/07/07 05:17:07;;;;;;;;;;;;;;;29.12;47.14;98628.72;2091742;28;19924;-49
2022/07/07 05:18:09;;;;;;;;;;;;;;;29.12;47.09;98631.44;2087019;28;20600;-48
2022/07/07 05:19:10;;;;;;;;;;;;;;;29.11;47.24;98631.72;2090289;28;19936;-47
2022/07/07 05:20:12;;;;;;;;;;;;;;;29.12;47.14;98633.38;2091885;28;19925;-50